sensor_id;sensor_type;location;lat;lon;timestamp;pressure;altitude;pressure_sealevel;temperature;humidity
58072;BME280;60383;46.626;18.866;2022-10-31T00:00:50;101156.56;;;11.29;100.00
58072;BME280;60383;46.626;18.866;2022-10-31T00:03:17;101154.41;;;10.94;100.00
58072;BME280;60383;46.626;18.866;2022-10-31T00:05:47;101166.06;;;10.96;100.00
58072;BME280;60383;46.626;18.866;2022-10-31T00:08:13;101154.97;;;10.88;100.00
58072;BME280;60383;46.626;18.866;2022-10-31T00:10:43;101152.66;;;10.93;100.00
58072;BME280;60383;46.626;18.866;2022-10-31T00:13:10;101148.78;;;11.05;100.00
58072;BME280;60383;46.626;18.866;2022-10-31T00:15:37;101149.03;;;11.02;100.00
58072;BME280;60383;46.626;18.866;2022-10-31T00:18:04;101149.06;;;11.12;100.00
58072;BME280;60383;46.626;18.866;2022-10-31T00:20:31;101147.63;;;11.08;100.00
58072;BME280;60383;46.626;18.866;2022-10-31T00:23:01;101146.75;;;11.17;100.00
58072;BME280;60383;46.626;18.866;2022-10-31T00:25:27;101146.47;;;11.20;100.00
58072;BME280;60383;46.626;18.866;2022-10-31T00:27:54;101140.69;;;11.13;100.00
58072;BME280;60383;46.626;18.866;2022-10-31T00:30:20;101146.31;;;11.02;100.00
58072;BME280;60383;46.626;18.866;2022-10-31T00:32:46;101131.75;;;11.01;100.00
58072;BME280;60383;46.626;18.866;2022-10-31T00:35:12;101132.06;;;11.08;100.00
58072;BME280;60383;46.626;18.866;2022-10-31T00:37:39;101123.38;;;11.13;100.00
58072;BME280;60383;46.626;18.866;2022-10-31T00:40:07;101124.25;;;11.33;100.00
58072;BME280;60383;46.626;18.866;2022-10-31T00:42:33;101125.41;;;11.11;100.00
58072;BME280;60383;46.626;18.866;2022-10-31T00:45:04;101133.06;;;10.97;100.00
58072;BME280;60383;46.626;18.866;2022-10-31T00:47:31;101133.75;;;11.09;100.00
58072;BME280;60383;46.626;18.866;2022-10-31T00:49:57;101122.53;;;11.02;100.00
58072;BME280;60383;46.626;18.866;2022-10-31T00:52:27;101128.16;;;11.01;100.00
58072;BME280;60383;46.626;18.866;2022-10-31T00:54:53;101126.00;;;11.05;100.00
58072;BME280;60383;46.626;18.866;2022-10-31T00:57:18;101130.91;;;11.01;100.00
58072;BME280;60383;46.626;18.866;2022-10-31T00:59:44;101127.00;;;10.94;100.00
58072;BME280;60383;46.626;18.866;2022-10-31T01:02:10;101127.00;;;10.94;100.00
58072;BME280;60383;46.626;18.866;2022-10-31T01:04:37;101126.25;;;10.92;100.00
58072;BME280;60383;46.626;18.866;2022-10-31T01:07:03;101114.72;;;10.88;100.00
58072;BME280;60383;46.626;18.866;2022-10-31T01:09:29;101112.13;;;10.96;100.00
58072;BME280;60383;46.626;18.866;2022-10-31T01:11:57;101112.56;;;11.21;100.00
58072;BME280;60383;46.626;18.866;2022-10-31T01:14:23;101123.09;;;11.06;100.00
58072;BME280;60383;46.626;18.866;2022-10-31T01:16:49;101121.22;;;11.16;100.00
58072;BME280;60383;46.626;18.866;2022-10-31T01:19:15;101124.53;;;11.10;100.00
58072;BME280;60383;46.626;18.866;2022-10-31T01:21:41;101113.88;;;11.17;100.00
58072;BME280;60383;46.626;18.866;2022-10-31T01:24:08;101113.88;;;10.97;100.00
58072;BME280;60383;46.626;18.866;2022-10-31T01:26:35;101113.38;;;10.73;100.00
58072;BME280;60383;46.626;18.866;2022-10-31T01:29:04;101126.25;;;10.82;100.00
58072;BME280;60383;46.626;18.866;2022-10-31T01:31:34;101122.50;;;10.73;100.00
58072;BME280;60383;46.626;18.866;2022-10-31T01:34:00;101120.03;;;10.80;100.00
58072;BME280;60383;46.626;18.866;2022-10-31T01:36:32;101119.03;;;10.81;100.00
58072;BME280;60383;46.626;18.866;2022-10-31T01:39:00;101119.47;;;10.96;100.00
58072;BME280;60383;46.626;18.866;2022-10-31T01:41:29;101122.94;;;10.98;100.00
58072;BME280;60383;46.626;18.866;2022-10-31T01:43:58;101121.94;;;10.89;100.00
58072;BME280;60383;46.626;18.866;2022-10-31T01:46:31;101117.31;;;10.99;100.00
58072;BME280;60383;46.626;18.866;2022-10-31T01:49:00;101116.03;;;11.03;100.00
58072;BME280;60383;46.626;18.866;2022-10-31T01:51:32;101112.84;;;10.98;100.00
58072;BME280;60383;46.626;18.866;2022-10-31T01:54:04;101122.78;;;10.99;100.00
58072;BME280;60383;46.626;18.866;2022-10-31T01:56:33;101117.31;;;10.90;100.00
58072;BME280;60383;46.626;18.866;2022-10-31T01:59:07;101116.88;;;11.04;100.00
58072;BME280;60383;46.626;18.866;2022-10-31T02:01:35;101114.53;;;10.60;100.00
58072;BME280;60383;46.626;18.866;2022-10-31T02:04:01;101119.84;;;10.62;100.00
58072;BME280;60383;46.626;18.866;2022-10-31T02:09:07;101114.38;;;10.62;100.00
58072;BME280;60383;46.626;18.866;2022-10-31T02:11:35;101110.06;;;10.59;100.00
58072;BME280;60383;46.626;18.866;2022-10-31T02:14:03;101105.88;;;10.65;100.00
58072;BME280;60383;46.626;18.866;2022-10-31T02:16:29;101103.41;;;10.52;100.00
58072;BME280;60383;46.626;18.866;2022-10-31T02:18:55;101113.06;;;10.46;100.00
58072;BME280;60383;46.626;18.866;2022-10-31T02:21:44;101099.41;;;10.66;100.00
58072;BME280;60383;46.626;18.866;2022-10-31T02:24:52;101095.47;;;10.39;100.00
58072;BME280;60383;46.626;18.866;2022-10-31T02:30:07;101102.13;;;10.46;100.00
58072;BME280;60383;46.626;18.866;2022-10-31T02:41:01;101094.09;;;9.93;100.00
58072;BME280;60383;46.626;18.866;2022-10-31T02:46:10;101108.66;;;9.93;100.00
58072;BME280;60383;46.626;18.866;2022-10-31T02:48:41;101105.06;;;10.02;100.00
58072;BME280;60383;46.626;18.866;2022-10-31T02:51:10;101095.31;;;10.10;100.00
58072;BME280;60383;46.626;18.866;2022-10-31T02:53:37;101102.25;;;10.14;100.00
58072;BME280;60383;46.626;18.866;2022-10-31T03:09:40;101101.06;;;10.06;100.00
58072;BME280;60383;46.626;18.866;2022-10-31T03:12:16;101101.16;;;10.36;100.00
58072;BME280;60383;46.626;18.866;2022-10-31T03:14:56;101103.38;;;10.42;100.00
58072;BME280;60383;46.626;18.866;2022-10-31T03:17:38;101101.59;;;10.72;100.00
58072;BME280;60383;46.626;18.866;2022-10-31T03:20:10;101102.25;;;10.54;100.00
58072;BME280;60383;46.626;18.866;2022-10-31T03:22:37;101100.41;;;10.75;100.00
58072;BME280;60383;46.626;18.866;2022-10-31T03:25:06;101104.59;;;10.69;100.00
58072;BME280;60383;46.626;18.866;2022-10-31T03:27:34;101102.84;;;10.68;100.00
58072;BME280;60383;46.626;18.866;2022-10-31T03:30:03;101104.59;;;10.69;100.00
58072;BME280;60383;46.626;18.866;2022-10-31T03:32:43;101113.28;;;10.74;100.00
58072;BME280;60383;46.626;18.866;2022-10-31T03:35:11;101111.22;;;10.66;100.00
58072;BME280;60383;46.626;18.866;2022-10-31T03:37:38;101103.56;;;10.50;100.00
58072;BME280;60383;46.626;18.866;2022-10-31T03:40:07;101117.44;;;10.68;100.00
58072;BME280;60383;46.626;18.866;2022-10-31T03:42:38;101103.16;;;10.75;100.00
58072;BME280;60383;46.626;18.866;2022-10-31T03:45:08;101111.81;;;10.80;100.00
58072;BME280;60383;46.626;18.866;2022-10-31T03:47:37;101104.31;;;10.31;100.00
58072;BME280;60383;46.626;18.866;2022-10-31T03:50:04;101099.25;;;10.58;100.00
58072;BME280;60383;46.626;18.866;2022-10-31T03:52:37;101103.00;;;10.66;100.00
58072;BME280;60383;46.626;18.866;2022-10-31T03:55:30;101101.41;;;10.64;100.00
58072;BME280;60383;46.626;18.866;2022-10-31T04:00:32;101110.00;;;10.39;100.00
58072;BME280;60383;46.626;18.866;2022-10-31T04:03:03;101118.16;;;10.70;100.00
58072;BME280;60383;46.626;18.866;2022-10-31T04:05:30;101112.47;;;10.43;100.00
58072;BME280;60383;46.626;18.866;2022-10-31T04:07:57;101119.41;;;10.47;100.00
58072;BME280;60383;46.626;18.866;2022-10-31T04:10:25;101108.28;;;10.38;100.00
58072;BME280;60383;46.626;18.866;2022-10-31T04:12:56;101116.34;;;10.40;100.00
58072;BME280;60383;46.626;18.866;2022-10-31T04:15:23;101112.34;;;10.44;100.00
58072;BME280;60383;46.626;18.866;2022-10-31T04:17:51;101115.09;;;10.54;100.00
58072;BME280;60383;46.626;18.866;2022-10-31T04:20:32;101112.50;;;10.52;100.00
58072;BME280;60383;46.626;18.866;2022-10-31T04:22:59;101115.94;;;10.54;100.00
58072;BME280;60383;46.626;18.866;2022-10-31T04:25:24;101118.25;;;10.49;100.00
58072;BME280;60383;46.626;18.866;2022-10-31T04:27:50;101110.47;;;10.54;100.00
58072;BME280;60383;46.626;18.866;2022-10-31T04:30:15;101111.94;;;10.59;100.00
58072;BME280;60383;46.626;18.866;2022-10-31T04:32:40;101117.47;;;10.37;100.00
58072;BME280;60383;46.626;18.866;2022-10-31T04:35:06;101120.63;;;10.33;100.00
58072;BME280;60383;46.626;18.866;2022-10-31T04:37:31;101122.78;;;9.98;100.00
58072;BME280;60383;46.626;18.866;2022-10-31T04:39:57;101123.56;;;10.10;100.00
58072;BME280;60383;46.626;18.866;2022-10-31T04:42:22;101124.94;;;10.26;100.00
58072;BME280;60383;46.626;18.866;2022-10-31T04:44:48;101119.97;;;10.50;100.00
58072;BME280;60383;46.626;18.866;2022-10-31T04:47:13;101126.78;;;10.56;100.00
58072;BME280;60383;46.626;18.866;2022-10-31T04:49:38;101127.69;;;10.35;100.00
58072;BME280;60383;46.626;18.866;2022-10-31T04:52:04;101132.56;;;10.22;100.00
58072;BME280;60383;46.626;18.866;2022-10-31T04:54:29;101125.78;;;10.26;100.00
58072;BME280;60383;46.626;18.866;2022-10-31T04:56:54;101124.03;;;10.25;100.00
58072;BME280;60383;46.626;18.866;2022-10-31T04:59:20;101127.19;;;10.20;100.00
58072;BME280;60383;46.626;18.866;2022-10-31T05:01:45;101129.84;;;10.32;100.00
58072;BME280;60383;46.626;18.866;2022-10-31T05:04:11;101129.16;;;10.39;100.00
58072;BME280;60383;46.626;18.866;2022-10-31T05:06:36;101125.47;;;10.50;100.00
58072;BME280;60383;46.626;18.866;2022-10-31T05:09:02;101129.78;;;10.53;100.00
58072;BME280;60383;46.626;18.866;2022-10-31T05:11:27;101128.63;;;10.46;100.00
58072;BME280;60383;46.626;18.866;2022-10-31T05:13:52;101133.50;;;10.42;100.00
58072;BME280;60383;46.626;18.866;2022-10-31T05:16:18;101137.72;;;10.46;100.00
58072;BME280;60383;46.626;18.866;2022-10-31T05:18:43;101136.56;;;10.49;100.00
58072;BME280;60383;46.626;18.866;2022-10-31T05:21:09;101140.16;;;10.18;100.00
58072;BME280;60383;46.626;18.866;2022-10-31T05:23:34;101140.13;;;10.09;100.00
58072;BME280;60383;46.626;18.866;2022-10-31T05:25:59;101139.84;;;10.12;100.00
58072;BME280;60383;46.626;18.866;2022-10-31T05:28:25;101147.25;;;10.21;100.00
58072;BME280;60383;46.626;18.866;2022-10-31T05:30:50;101153.56;;;10.21;100.00
58072;BME280;60383;46.626;18.866;2022-10-31T05:33:15;101142.34;;;10.25;100.00
58072;BME280;60383;46.626;18.866;2022-10-31T05:35:41;101153.94;;;10.07;100.00
58072;BME280;60383;46.626;18.866;2022-10-31T05:38:06;101154.53;;;10.11;100.00
58072;BME280;60383;46.626;18.866;2022-10-31T05:40:31;101158.38;;;10.29;100.00
58072;BME280;60383;46.626;18.866;2022-10-31T05:42:57;101148.19;;;10.41;100.00
58072;BME280;60383;46.626;18.866;2022-10-31T05:45:24;101157.88;;;10.45;100.00
58072;BME280;60383;46.626;18.866;2022-10-31T05:48:08;101157.16;;;10.43;100.00
58072;BME280;60383;46.626;18.866;2022-10-31T05:50:33;101166.56;;;9.98;100.00
58072;BME280;60383;46.626;18.866;2022-10-31T05:53:01;101163.03;;;10.07;100.00
58072;BME280;60383;46.626;18.866;2022-10-31T05:55:28;101175.63;;;9.99;100.00
58072;BME280;60383;46.626;18.866;2022-10-31T05:57:54;101169.16;;;10.00;100.00
58072;BME280;60383;46.626;18.866;2022-10-31T06:00:21;101170.09;;;10.10;100.00
58072;BME280;60383;46.626;18.866;2022-10-31T06:02:47;101171.81;;;10.11;100.00
58072;BME280;60383;46.626;18.866;2022-10-31T06:05:14;101174.81;;;10.29;100.00
58072;BME280;60383;46.626;18.866;2022-10-31T06:07:39;101175.81;;;10.28;100.00
58072;BME280;60383;46.626;18.866;2022-10-31T06:10:07;101179.25;;;10.30;100.00
58072;BME280;60383;46.626;18.866;2022-10-31T06:12:33;101184.94;;;10.38;100.00
58072;BME280;60383;46.626;18.866;2022-10-31T06:15:05;101185.13;;;10.47;100.00
58072;BME280;60383;46.626;18.866;2022-10-31T06:17:31;101189.88;;;10.45;100.00
58072;BME280;60383;46.626;18.866;2022-10-31T06:19:56;101189.00;;;10.44;100.00
58072;BME280;60383;46.626;18.866;2022-10-31T06:22:22;101181.09;;;10.51;100.00
58072;BME280;60383;46.626;18.866;2022-10-31T06:24:47;101190.44;;;10.48;100.00
58072;BME280;60383;46.626;18.866;2022-10-31T06:27:12;101194.66;;;10.31;100.00
58072;BME280;60383;46.626;18.866;2022-10-31T06:29:38;101191.88;;;10.21;100.00
58072;BME280;60383;46.626;18.866;2022-10-31T06:32:04;101199.66;;;10.16;100.00
58072;BME280;60383;46.626;18.866;2022-10-31T06:34:29;101200.09;;;10.21;100.00
58072;BME280;60383;46.626;18.866;2022-10-31T06:36:54;101194.72;;;10.10;100.00
58072;BME280;60383;46.626;18.866;2022-10-31T06:39:20;101205.91;;;10.28;100.00
58072;BME280;60383;46.626;18.866;2022-10-31T06:41:47;101207.91;;;10.26;100.00
58072;BME280;60383;46.626;18.866;2022-10-31T06:44:13;101208.38;;;10.31;100.00
58072;BME280;60383;46.626;18.866;2022-10-31T06:46:38;101213.31;;;10.37;100.00
58072;BME280;60383;46.626;18.866;2022-10-31T06:49:03;101211.38;;;10.28;100.00
58072;BME280;60383;46.626;18.866;2022-10-31T06:51:29;101215.28;;;10.26;100.00
58072;BME280;60383;46.626;18.866;2022-10-31T06:53:54;101212.25;;;10.29;100.00
58072;BME280;60383;46.626;18.866;2022-10-31T06:56:19;101216.47;;;10.33;100.00
58072;BME280;60383;46.626;18.866;2022-10-31T06:58:45;101223.78;;;10.32;100.00
58072;BME280;60383;46.626;18.866;2022-10-31T07:01:10;101219.69;;;10.38;100.00
58072;BME280;60383;46.626;18.866;2022-10-31T07:03:36;101224.38;;;10.36;100.00
58072;BME280;60383;46.626;18.866;2022-10-31T07:06:01;101222.16;;;10.20;100.00
58072;BME280;60383;46.626;18.866;2022-10-31T07:08:27;101234.38;;;10.16;100.00
58072;BME280;60383;46.626;18.866;2022-10-31T07:10:54;101230.81;;;10.25;100.00
58072;BME280;60383;46.626;18.866;2022-10-31T07:13:20;101229.97;;;10.25;100.00
58072;BME280;60383;46.626;18.866;2022-10-31T07:15:50;101232.03;;;9.90;100.00
58072;BME280;60383;46.626;18.866;2022-10-31T07:18:15;101225.34;;;9.62;100.00
58072;BME280;60383;46.626;18.866;2022-10-31T07:20:40;101222.75;;;10.02;100.00
58072;BME280;60383;46.626;18.866;2022-10-31T07:23:07;101221.81;;;10.13;100.00
58072;BME280;60383;46.626;18.866;2022-10-31T07:25:32;101218.31;;;10.32;100.00
58072;BME280;60383;46.626;18.866;2022-10-31T07:27:58;101222.41;;;10.17;100.00
58072;BME280;60383;46.626;18.866;2022-10-31T07:30:23;101221.06;;;10.32;100.00
58072;BME280;60383;46.626;18.866;2022-10-31T07:32:50;101224.25;;;10.59;100.00
58072;BME280;60383;46.626;18.866;2022-10-31T07:35:24;101229.75;;;10.37;100.00
58072;BME280;60383;46.626;18.866;2022-10-31T07:37:50;101218.88;;;10.26;100.00
58072;BME280;60383;46.626;18.866;2022-10-31T07:40:16;101216.41;;;10.44;100.00
58072;BME280;60383;46.626;18.866;2022-10-31T07:42:43;101217.84;;;10.48;100.00
58072;BME280;60383;46.626;18.866;2022-10-31T07:45:11;101221.31;;;10.50;100.00
58072;BME280;60383;46.626;18.866;2022-10-31T07:47:41;101214.56;;;10.64;100.00
58072;BME280;60383;46.626;18.866;2022-10-31T07:50:07;101218.22;;;10.75;100.00
58072;BME280;60383;46.626;18.866;2022-10-31T07:52:33;101222.78;;;10.64;100.00
58072;BME280;60383;46.626;18.866;2022-10-31T07:54:59;101222.66;;;10.35;100.00
58072;BME280;60383;46.626;18.866;2022-10-31T07:57:24;101208.75;;;10.27;100.00
58072;BME280;60383;46.626;18.866;2022-10-31T07:59:49;101216.53;;;10.43;100.00
58072;BME280;60383;46.626;18.866;2022-10-31T08:02:15;101217.13;;;10.46;100.00
58072;BME280;60383;46.626;18.866;2022-10-31T08:04:40;101215.25;;;10.47;100.00
58072;BME280;60383;46.626;18.866;2022-10-31T08:07:05;101211.09;;;10.31;100.00
58072;BME280;60383;46.626;18.866;2022-10-31T08:09:31;101209.91;;;10.24;100.00
58072;BME280;60383;46.626;18.866;2022-10-31T08:11:56;101210.47;;;10.18;100.00
58072;BME280;60383;46.626;18.866;2022-10-31T08:14:22;101201.75;;;10.65;100.00
58072;BME280;60383;46.626;18.866;2022-10-31T08:16:47;101203.97;;;10.19;100.00
58072;BME280;60383;46.626;18.866;2022-10-31T08:19:13;101207.00;;;10.37;100.00
58072;BME280;60383;46.626;18.866;2022-10-31T08:21:38;101203.31;;;10.58;100.00
58072;BME280;60383;46.626;18.866;2022-10-31T08:24:04;101198.66;;;10.79;100.00
58072;BME280;60383;46.626;18.866;2022-10-31T08:26:30;101197.19;;;10.85;100.00
58072;BME280;60383;46.626;18.866;2022-10-31T08:28:55;101204.16;;;10.99;100.00
58072;BME280;60383;46.626;18.866;2022-10-31T08:31:21;101198.38;;;10.92;100.00
58072;BME280;60383;46.626;18.866;2022-10-31T08:33:48;101204.50;;;11.15;100.00
58072;BME280;60383;46.626;18.866;2022-10-31T08:36:13;101200.13;;;11.13;100.00
58072;BME280;60383;46.626;18.866;2022-10-31T08:38:38;101204.59;;;11.14;100.00
58072;BME280;60383;46.626;18.866;2022-10-31T08:41:04;101200.72;;;11.16;100.00
58072;BME280;60383;46.626;18.866;2022-10-31T08:43:29;101212.22;;;10.91;100.00
58072;BME280;60383;46.626;18.866;2022-10-31T08:45:54;101205.84;;;10.80;100.00
58072;BME280;60383;46.626;18.866;2022-10-31T08:48:20;101207.91;;;10.98;100.00
58072;BME280;60383;46.626;18.866;2022-10-31T08:50:46;101215.16;;;11.09;100.00
58072;BME280;60383;46.626;18.866;2022-10-31T08:53:14;101209.47;;;10.91;100.00
58072;BME280;60383;46.626;18.866;2022-10-31T08:55:41;101209.63;;;10.89;100.00
58072;BME280;60383;46.626;18.866;2022-10-31T08:58:10;101217.94;;;10.78;100.00
58072;BME280;60383;46.626;18.866;2022-10-31T09:00:36;101215.50;;;10.75;100.00
58072;BME280;60383;46.626;18.866;2022-10-31T09:03:04;101216.25;;;10.86;100.00
58072;BME280;60383;46.626;18.866;2022-10-31T09:05:31;101218.59;;;11.01;100.00
58072;BME280;60383;46.626;18.866;2022-10-31T09:07:57;101223.22;;;11.20;100.00
58072;BME280;60383;46.626;18.866;2022-10-31T09:10:24;101228.25;;;11.05;100.00
58072;BME280;60383;46.626;18.866;2022-10-31T09:13:00;101224.97;;;11.31;100.00
58072;BME280;60383;46.626;18.866;2022-10-31T09:15:27;101221.22;;;11.22;100.00
58072;BME280;60383;46.626;18.866;2022-10-31T09:17:53;101223.13;;;11.31;100.00
58072;BME280;60383;46.626;18.866;2022-10-31T09:20:20;101222.22;;;11.21;100.00
58072;BME280;60383;46.626;18.866;2022-10-31T09:22:46;101226.28;;;11.17;100.00
58072;BME280;60383;46.626;18.866;2022-10-31T09:25:12;101230.53;;;10.80;100.00
58072;BME280;60383;46.626;18.866;2022-10-31T09:27:37;101237.16;;;10.47;100.00
58072;BME280;60383;46.626;18.866;2022-10-31T09:30:04;101233.59;;;10.35;100.00
58072;BME280;60383;46.626;18.866;2022-10-31T09:32:29;101233.09;;;10.41;100.00
58072;BME280;60383;46.626;18.866;2022-10-31T09:34:55;101237.13;;;10.78;100.00
58072;BME280;60383;46.626;18.866;2022-10-31T09:37:20;101240.16;;;10.75;100.00
58072;BME280;60383;46.626;18.866;2022-10-31T09:39:46;101239.66;;;11.00;100.00
58072;BME280;60383;46.626;18.866;2022-10-31T09:45:38;101226.88;;;11.30;100.00
58072;BME280;60383;46.626;18.866;2022-10-31T09:51:24;101233.50;;;11.28;100.00
58072;BME280;60383;46.626;18.866;2022-10-31T09:56:21;101229.88;;;11.17;100.00
58072;BME280;60383;46.626;18.866;2022-10-31T09:58:56;101232.03;;;11.24;100.00
58072;BME280;60383;46.626;18.866;2022-10-31T10:04:42;101231.41;;;10.91;100.00
58072;BME280;60383;46.626;18.866;2022-10-31T10:10:15;101228.13;;;11.16;100.00
58072;BME280;60383;46.626;18.866;2022-10-31T10:29:37;101214.16;;;11.59;100.00
58072;BME280;60383;46.626;18.866;2022-10-31T10:32:12;101215.88;;;11.70;100.00
58072;BME280;60383;46.626;18.866;2022-10-31T10:34:47;101214.59;;;11.64;100.00
58072;BME280;60383;46.626;18.866;2022-10-31T10:39:47;101214.88;;;11.61;100.00
58072;BME280;60383;46.626;18.866;2022-10-31T10:42:15;101212.41;;;11.58;100.00
58072;BME280;60383;46.626;18.866;2022-10-31T10:45:09;101209.97;;;11.64;100.00
58072;BME280;60383;46.626;18.866;2022-10-31T10:48:05;101210.25;;;11.51;100.00
58072;BME280;60383;46.626;18.866;2022-10-31T10:50:36;101205.50;;;11.54;100.00
58072;BME280;60383;46.626;18.866;2022-10-31T10:55:56;101203.47;;;11.65;100.00
58072;BME280;60383;46.626;18.866;2022-10-31T10:58:25;101194.34;;;11.75;100.00
58072;BME280;60383;46.626;18.866;2022-10-31T11:00:52;101191.19;;;11.79;100.00
58072;BME280;60383;46.626;18.866;2022-10-31T11:03:19;101200.28;;;11.80;100.00
58072;BME280;60383;46.626;18.866;2022-10-31T11:05:55;101196.38;;;11.82;100.00
58072;BME280;60383;46.626;18.866;2022-10-31T11:13:45;101198.13;;;11.64;100.00
58072;BME280;60383;46.626;18.866;2022-10-31T11:18:53;101190.44;;;11.77;100.00
58072;BME280;60383;46.626;18.866;2022-10-31T11:21:24;101194.06;;;11.78;100.00
58072;BME280;60383;46.626;18.866;2022-10-31T11:24:43;101194.09;;;11.58;100.00
58072;BME280;60383;46.626;18.866;2022-10-31T11:27:11;101190.47;;;11.18;100.00
58072;BME280;60383;46.626;18.866;2022-10-31T11:29:38;101187.47;;;11.12;100.00
58072;BME280;60383;46.626;18.866;2022-10-31T11:32:04;101193.66;;;11.33;100.00
58072;BME280;60383;46.626;18.866;2022-10-31T11:34:33;101187.47;;;11.22;100.00
58072;BME280;60383;46.626;18.866;2022-10-31T11:37:23;101183.25;;;11.27;100.00
58072;BME280;60383;46.626;18.866;2022-10-31T11:39:58;101172.75;;;11.52;100.00
58072;BME280;60383;46.626;18.866;2022-10-31T11:42:38;101176.91;;;11.46;100.00
58072;BME280;60383;46.626;18.866;2022-10-31T11:45:14;101175.75;;;11.49;100.00
58072;BME280;60383;46.626;18.866;2022-10-31T11:47:43;101178.50;;;11.59;100.00
58072;BME280;60383;46.626;18.866;2022-10-31T11:50:11;101182.13;;;11.49;100.00
58072;BME280;60383;46.626;18.866;2022-10-31T11:52:44;101179.38;;;11.59;100.00
58072;BME280;60383;46.626;18.866;2022-10-31T11:57:50;101172.28;;;11.66;100.00
58072;BME280;60383;46.626;18.866;2022-10-31T12:03:26;101173.72;;;11.71;100.00
58072;BME280;60383;46.626;18.866;2022-10-31T12:06:27;101177.31;;;11.81;100.00
58072;BME280;60383;46.626;18.866;2022-10-31T12:08:55;101175.31;;;11.73;100.00
58072;BME280;60383;46.626;18.866;2022-10-31T12:16:57;101171.50;;;11.94;100.00
58072;BME280;60383;46.626;18.866;2022-10-31T12:49:52;101153.63;;;11.90;100.00
58072;BME280;60383;46.626;18.866;2022-10-31T12:55:23;101144.66;;;11.88;100.00
58072;BME280;60383;46.626;18.866;2022-10-31T12:57:56;101142.31;;;11.93;100.00
58072;BME280;60383;46.626;18.866;2022-10-31T13:00:24;101147.25;;;11.89;100.00
58072;BME280;60383;46.626;18.866;2022-10-31T13:02:54;101148.53;;;12.05;100.00
58072;BME280;60383;46.626;18.866;2022-10-31T13:05:37;101150.44;;;12.04;100.00
58072;BME280;60383;46.626;18.866;2022-10-31T13:10:44;101136.59;;;11.76;100.00
58072;BME280;60383;46.626;18.866;2022-10-31T13:13:18;101141.34;;;11.84;100.00
58072;BME280;60383;46.626;18.866;2022-10-31T13:15:50;101141.75;;;11.89;100.00
58072;BME280;60383;46.626;18.866;2022-10-31T13:21:45;101145.09;;;11.83;100.00
58072;BME280;60383;46.626;18.866;2022-10-31T13:24:22;101146.22;;;11.90;100.00
58072;BME280;60383;46.626;18.866;2022-10-31T13:26:53;101146.06;;;11.92;100.00
58072;BME280;60383;46.626;18.866;2022-10-31T13:29:41;101142.03;;;11.96;100.00
58072;BME280;60383;46.626;18.866;2022-10-31T13:32:08;101142.59;;;12.09;100.00
58072;BME280;60383;46.626;18.866;2022-10-31T13:34:39;101144.34;;;12.10;100.00
58072;BME280;60383;46.626;18.866;2022-10-31T13:45:17;101141.00;;;12.17;100.00
58072;BME280;60383;46.626;18.866;2022-10-31T13:48:40;101143.25;;;12.31;100.00
58072;BME280;60383;46.626;18.866;2022-10-31T13:50:41;101136.31;;;12.27;100.00
58072;BME280;60383;46.626;18.866;2022-10-31T13:56:02;101141.50;;;12.30;100.00
58072;BME280;60383;46.626;18.866;2022-10-31T13:58:29;101135.63;;;12.25;100.00
58072;BME280;60383;46.626;18.866;2022-10-31T14:01:20;101144.53;;;12.27;100.00
58072;BME280;60383;46.626;18.866;2022-10-31T14:04:18;101141.28;;;12.13;100.00
58072;BME280;60383;46.626;18.866;2022-10-31T14:06:45;101135.22;;;12.10;100.00
58072;BME280;60383;46.626;18.866;2022-10-31T14:09:27;101137.84;;;12.02;100.00
58072;BME280;60383;46.626;18.866;2022-10-31T14:11:54;101143.50;;;12.00;100.00
58072;BME280;60383;46.626;18.866;2022-10-31T14:14:23;101138.00;;;11.90;100.00
58072;BME280;60383;46.626;18.866;2022-10-31T14:16:55;101139.00;;;11.89;100.00
58072;BME280;60383;46.626;18.866;2022-10-31T14:19:23;101138.28;;;12.07;100.00
58072;BME280;60383;46.626;18.866;2022-10-31T14:21:50;101135.81;;;12.04;100.00
58072;BME280;60383;46.626;18.866;2022-10-31T14:26:59;101140.44;;;12.13;100.00
58072;BME280;60383;46.626;18.866;2022-10-31T14:29:28;101134.81;;;11.95;100.00
58072;BME280;60383;46.626;18.866;2022-10-31T14:34:34;101129.75;;;12.00;100.00
58072;BME280;60383;46.626;18.866;2022-10-31T14:48:43;101137.16;;;11.90;100.00
58072;BME280;60383;46.626;18.866;2022-10-31T14:51:25;101137.03;;;11.72;100.00
58072;BME280;60383;46.626;18.866;2022-10-31T14:53:54;101135.13;;;11.82;100.00
58072;BME280;60383;46.626;18.866;2022-10-31T14:56:32;101141.47;;;11.92;100.00
58072;BME280;60383;46.626;18.866;2022-10-31T14:59:02;101147.13;;;12.01;100.00
58072;BME280;60383;46.626;18.866;2022-10-31T15:01:36;101139.16;;;11.97;100.00
58072;BME280;60383;46.626;18.866;2022-10-31T15:04:15;101141.16;;;11.95;100.00
58072;BME280;60383;46.626;18.866;2022-10-31T15:06:46;101133.41;;;12.01;100.00
58072;BME280;60383;46.626;18.866;2022-10-31T15:09:22;101137.72;;;12.03;100.00
58072;BME280;60383;46.626;18.866;2022-10-31T15:11:49;101131.22;;;12.04;100.00
58072;BME280;60383;46.626;18.866;2022-10-31T15:14:32;101132.63;;;12.08;100.00
58072;BME280;60383;46.626;18.866;2022-10-31T15:17:01;101128.88;;;12.09;100.00